Changchun, China
Current Conditions -  °F | °C
As of 7:00 AM on Monday 24 Nov 2014 (Local Time) from ZYCC Reporting Station
Clear Clear  
Wind Chill:   Ceiling: Unl
Heat Index: 16°   Visibility: 4mi
Dew Point:   Wind: 4mph
Humidity: 68%   Direction: 320°NW
Pressure: 30.33"   Gusts: NA
Location:  43.87°N, 125.35°E
Report Text: ZYCC 232300Z 32002MPS 6000 NSC M09/M14 Q1027 NOSIG
Loading
Personal Weather Stations






























Interactive Weather Map New forecast layout! Learn more

10-Day Weather Forecast

Advertisements
Track Severe Weather on mobile